Aérodrome :
LOGIN :

S'inscrire | Disclaimer

   EN    FR    IT 

 










Légende :    VFR   VFR Marginal   IFR   IFR Intensif   IFR Très Intensif
Visi : 
Plafond : 
>= 8 km
>= 3000ft
5 à 8 km
1000 à 3000 ft
1500m à 5 km
500 à 1000 ft
800 à 1500m
200 à 500 ft
< 800m
< 200 ft
Symboles :   Orages  Brouillard  Fortes neiges  Fortes précipitations  Vent > 20 kt
SIGMETs :   Divers  Orages  Givrage  Turbulence  Onde Orograph.  Cendres Volcan.






- Altitude de l'aérodrome : 40 ft
- Code IATA : RMI


LIPR - Federico Fellini Int. Rimini

DERNIER METAR :
  • 111720Z 07007KT 9999 FEW030 SCT070 28/21 Q1012

METARs EXPIRÉS :
  • 111650Z 09010KT 9999 FEW045 FEW055CB 28/21 Q1011
  • 111620Z 09009KT 9999 FEW070 28/21 Q1011
  • 111550Z 08009KT 050V110 CAVOK 30/20 Q1011
  • 111520Z 08010KT 050V110 9999 FEW025 30/19 Q1011
  • 111450Z 09011KT CAVOK 30/19 Q1011

TAF TAF LIPR
Valide du 11 à 15h jusqu'au 12 à 00h UTC


111400Z 1115/1124 10012KT CAVOK
BECMG 1117/1120 03016KT



MET'MAP, la Météo Aéronautique d'un coup d'oeil ! - Copyright ORBIFLY Décembre 2007 - Disclaimer

ORBIFLY MET'MAP TEAM :

Programmation & Développement : Alexandra Zaïnal
Sur une idée originale de : Baudouin d'Aumeries
Assistance à la programmation : Marc-Olivier Méhu
Soutien technique & logistique : Manuel Goepfert

Contact : metmap@orbifly.com




SOURCES & CREDITS :

   NOAA